UAL1623 KLAX-KLAS
Flight info
| Callsign | UAL1623 |
|---|---|
| Flight time | N/A |
| Altitude | 29000 |
| Route | ORCKA5 MISEN RNDRZ4 |
| Aircraft | B738/M-SDE2E3FGHIRWXY/LB1 |
Departure
| Time | 2026-04-25 03:08 |
|---|---|
| Airport | Los Angeles International Airport (KLAX) |
Arrival
| Time | N/A |
|---|---|
| Airport | Harry Reid International Airport (KLAS) |
| Time | Latitude | Longitude | Altitude | Speed | Heading |
|---|---|---|---|---|---|
| 2026-04-25 02:43 | 33.94168 | -118.39780 | 114 ft | 0 kts | 84° |
| 2026-04-25 02:59 | 33.94167 | -118.39786 | 113 ft | 2 kts | 82° |
| 2026-04-25 02:59 | 33.94165 | -118.39804 | 114 ft | 2 kts | 84° |
| 2026-04-25 03:00 | 33.94164 | -118.39820 | 114 ft | 2 kts | 83° |
| 2026-04-25 03:00 | 33.94168 | -118.39839 | 114 ft | 2 kts | 137° |
| 2026-04-25 03:00 | 33.94179 | -118.39846 | 115 ft | 1 kts | 173° |
| 2026-04-25 03:00 | 33.94186 | -118.39847 | 115 ft | 0 kts | 174° |
| 2026-04-25 03:02 | 33.94151 | -118.39841 | 114 ft | 8 kts | 174° |
| 2026-04-25 03:03 | 33.94096 | -118.39835 | 114 ft | 9 kts | 174° |
| 2026-04-25 03:03 | 33.94036 | -118.39831 | 114 ft | 9 kts | 175° |
| 2026-04-25 03:03 | 33.93969 | -118.39823 | 114 ft | 10 kts | 171° |
| 2026-04-25 03:03 | 33.93917 | -118.39784 | 113 ft | 10 kts | 122° |
| 2026-04-25 03:04 | 33.93910 | -118.39705 | 112 ft | 11 kts | 83° |
| 2026-04-25 03:04 | 33.93921 | -118.39605 | 111 ft | 16 kts | 83° |
| 2026-04-25 03:04 | 33.93935 | -118.39453 | 110 ft | 21 kts | 84° |
| 2026-04-25 03:05 | 33.93969 | -118.39114 | 107 ft | 21 kts | 84° |
| 2026-04-25 03:05 | 33.93986 | -118.38947 | 105 ft | 22 kts | 82° |
| 2026-04-25 03:05 | 33.94005 | -118.38781 | 105 ft | 21 kts | 83° |
| 2026-04-25 03:05 | 33.94022 | -118.38609 | 105 ft | 20 kts | 84° |
| 2026-04-25 03:06 | 33.94037 | -118.38450 | 104 ft | 20 kts | 84° |
| 2026-04-25 03:06 | 33.94053 | -118.38279 | 101 ft | 20 kts | 83° |
| 2026-04-25 03:06 | 33.94065 | -118.38167 | 101 ft | 13 kts | 83° |
| 2026-04-25 03:06 | 33.94076 | -118.38067 | 101 ft | 12 kts | 83° |
| 2026-04-25 03:07 | 33.94069 | -118.38025 | 101 ft | 6 kts | 128° |
| 2026-04-25 03:07 | 33.94018 | -118.38002 | 101 ft | 11 kts | 181° |
| 2026-04-25 03:07 | 33.93978 | -118.38040 | 101 ft | 10 kts | 259° |
| 2026-04-25 03:07 | 33.93975 | -118.38084 | 101 ft | 0 kts | 267° |
| 2026-04-25 03:08 | 33.93966 | -118.38207 | 101 ft | 45 kts | 264° |
| 2026-04-25 03:08 | 33.93904 | -118.38792 | 105 ft | 111 kts | 264° |
| 2026-04-25 03:08 | 33.93800 | -118.39820 | 121 ft | 163 kts | 263° |
| 2026-04-25 03:08 | 33.93665 | -118.41198 | 794 ft | 168 kts | 263° |
| 2026-04-25 03:09 | 33.93556 | -118.42532 | 1609 ft | 162 kts | 263° |
| 2026-04-25 03:09 | 33.93421 | -118.43964 | 1965 ft | 179 kts | 261° |
| 2026-04-25 03:09 | 33.93231 | -118.45406 | 2638 ft | 177 kts | 260° |
| 2026-04-25 03:09 | 33.92943 | -118.46892 | 3017 ft | 190 kts | 240° |
| 2026-04-25 03:10 | 33.91897 | -118.47984 | 3395 ft | 208 kts | 200° |
| 2026-04-25 03:10 | 33.90395 | -118.48069 | 3780 ft | 229 kts | 167° |
| 2026-04-25 03:10 | 33.88892 | -118.47102 | 4225 ft | 250 kts | 136° |
| 2026-04-25 03:10 | 33.88020 | -118.45258 | 4636 ft | 268 kts | 101° |
| 2026-04-25 03:11 | 33.88174 | -118.43018 | 5142 ft | 279 kts | 66° |
| 2026-04-25 03:11 | 33.89441 | -118.41179 | 5895 ft | 278 kts | 30° |
| 2026-04-25 03:11 | 33.91312 | -118.40540 | 6715 ft | 273 kts | 358° |
| 2026-04-25 03:11 | 33.92369 | -118.40646 | 7100 ft | 275 kts | 346° |